sensor_id;sensor_type;location;lat;lon;timestamp;P1;durP1;ratioP1;P2;durP2;ratioP2
70899;SDS011;67902;52.154;5.430;2023-03-01T00:01:27;13.35;;;6.32;;
70899;SDS011;67902;52.154;5.430;2023-03-01T00:03:56;16.33;;;7.18;;
70899;SDS011;67902;52.154;5.430;2023-03-01T00:06:24;15.50;;;6.65;;
70899;SDS011;67902;52.154;5.430;2023-03-01T00:08:51;14.45;;;6.85;;
70899;SDS011;67902;52.154;5.430;2023-03-01T00:11:19;16.65;;;7.32;;
70899;SDS011;67902;52.154;5.430;2023-03-01T00:13:48;15.73;;;7.35;;
70899;SDS011;67902;52.154;5.430;2023-03-01T00:16:21;15.80;;;6.90;;
70899;SDS011;67902;52.154;5.430;2023-03-01T00:18:59;17.40;;;7.95;;
70899;SDS011;67902;52.154;5.430;2023-03-01T00:21:26;14.50;;;6.85;;
70899;SDS011;67902;52.154;5.430;2023-03-01T00:23:53;14.10;;;6.82;;
70899;SDS011;67902;52.154;5.430;2023-03-01T00:26:20;18.33;;;8.00;;
70899;SDS011;67902;52.154;5.430;2023-03-01T00:28:48;18.73;;;8.40;;
70899;SDS011;67902;52.154;5.430;2023-03-01T00:31:16;16.83;;;8.00;;
70899;SDS011;67902;52.154;5.430;2023-03-01T00:33:45;19.45;;;7.10;;
70899;SDS011;67902;52.154;5.430;2023-03-01T00:36:12;15.20;;;7.88;;
70899;SDS011;67902;52.154;5.430;2023-03-01T00:38:41;17.52;;;7.32;;
70899;SDS011;67902;52.154;5.430;2023-03-01T00:41:11;19.55;;;8.02;;
70899;SDS011;67902;52.154;5.430;2023-03-01T00:43:39;15.77;;;7.53;;
70899;SDS011;67902;52.154;5.430;2023-03-01T00:46:07;17.17;;;7.55;;
70899;SDS011;67902;52.154;5.430;2023-03-01T00:48:37;20.30;;;7.80;;
70899;SDS011;67902;52.154;5.430;2023-03-01T00:51:05;15.95;;;7.35;;
70899;SDS011;67902;52.154;5.430;2023-03-01T00:53:36;17.05;;;7.53;;
70899;SDS011;67902;52.154;5.430;2023-03-01T00:56:03;17.38;;;7.15;;
70899;SDS011;67902;52.154;5.430;2023-03-01T00:58:31;21.15;;;7.75;;
70899;SDS011;67902;52.154;5.430;2023-03-01T01:00:58;20.67;;;8.18;;
70899;SDS011;67902;52.154;5.430;2023-03-01T01:03:25;21.77;;;7.40;;
70899;SDS011;67902;52.154;5.430;2023-03-01T01:05:52;18.13;;;8.75;;
70899;SDS011;67902;52.154;5.430;2023-03-01T01:08:19;17.42;;;8.13;;
70899;SDS011;67902;52.154;5.430;2023-03-01T01:10:46;16.50;;;8.45;;
70899;SDS011;67902;52.154;5.430;2023-03-01T01:13:13;18.67;;;7.68;;
70899;SDS011;67902;52.154;5.430;2023-03-01T01:15:40;20.00;;;8.07;;
70899;SDS011;67902;52.154;5.430;2023-03-01T01:18:06;18.63;;;9.48;;
70899;SDS011;67902;52.154;5.430;2023-03-01T01:20:34;20.23;;;9.02;;
70899;SDS011;67902;52.154;5.430;2023-03-01T01:23:01;17.65;;;7.90;;
70899;SDS011;67902;52.154;5.430;2023-03-01T01:25:28;22.25;;;8.45;;
70899;SDS011;67902;52.154;5.430;2023-03-01T01:27:54;19.35;;;8.40;;
70899;SDS011;67902;52.154;5.430;2023-03-01T01:30:20;18.85;;;8.25;;
70899;SDS011;67902;52.154;5.430;2023-03-01T01:32:47;27.83;;;8.90;;
70899;SDS011;67902;52.154;5.430;2023-03-01T01:35:13;18.88;;;9.07;;
70899;SDS011;67902;52.154;5.430;2023-03-01T01:37:40;17.92;;;8.13;;
70899;SDS011;67902;52.154;5.430;2023-03-01T01:40:06;20.05;;;8.10;;
70899;SDS011;67902;52.154;5.430;2023-03-01T01:42:33;19.85;;;8.32;;
70899;SDS011;67902;52.154;5.430;2023-03-01T01:48:06;20.40;;;8.55;;
70899;SDS011;67902;52.154;5.430;2023-03-01T01:50:39;22.27;;;8.00;;
70899;SDS011;67902;52.154;5.430;2023-03-01T01:53:10;23.15;;;8.05;;
70899;SDS011;67902;52.154;5.430;2023-03-01T01:55:42;19.13;;;7.95;;
70899;SDS011;67902;52.154;5.430;2023-03-01T01:58:14;21.25;;;8.23;;
70899;SDS011;67902;52.154;5.430;2023-03-01T02:00:43;18.33;;;8.30;;
70899;SDS011;67902;52.154;5.430;2023-03-01T02:03:11;25.58;;;9.18;;
70899;SDS011;67902;52.154;5.430;2023-03-01T02:05:47;19.35;;;8.63;;
70899;SDS011;67902;52.154;5.430;2023-03-01T02:08:21;16.33;;;8.02;;
70899;SDS011;67902;52.154;5.430;2023-03-01T02:10:51;21.67;;;8.73;;
70899;SDS011;67902;52.154;5.430;2023-03-01T02:13:19;22.60;;;8.68;;
70899;SDS011;67902;52.154;5.430;2023-03-01T02:15:45;19.95;;;8.25;;
70899;SDS011;67902;52.154;5.430;2023-03-01T02:18:12;18.55;;;8.10;;
70899;SDS011;67902;52.154;5.430;2023-03-01T02:20:49;17.42;;;8.27;;
70899;SDS011;67902;52.154;5.430;2023-03-01T02:25:55;19.27;;;7.97;;
70899;SDS011;67902;52.154;5.430;2023-03-01T02:28:34;21.50;;;8.98;;
70899;SDS011;67902;52.154;5.430;2023-03-01T02:31:03;17.25;;;8.30;;
70899;SDS011;67902;52.154;5.430;2023-03-01T02:33:50;20.17;;;8.90;;
70899;SDS011;67902;52.154;5.430;2023-03-01T02:36:19;18.98;;;8.23;;
70899;SDS011;67902;52.154;5.430;2023-03-01T02:38:49;16.23;;;7.47;;
70899;SDS011;67902;52.154;5.430;2023-03-01T02:41:19;16.60;;;8.23;;
70899;SDS011;67902;52.154;5.430;2023-03-01T02:43:47;24.20;;;8.55;;
70899;SDS011;67902;52.154;5.430;2023-03-01T02:46:16;16.75;;;7.88;;
70899;SDS011;67902;52.154;5.430;2023-03-01T02:48:48;17.02;;;8.52;;
70899;SDS011;67902;52.154;5.430;2023-03-01T02:54:22;25.15;;;9.20;;
70899;SDS011;67902;52.154;5.430;2023-03-01T02:56:53;23.50;;;8.05;;
70899;SDS011;67902;52.154;5.430;2023-03-01T02:59:21;21.25;;;8.68;;
70899;SDS011;67902;52.154;5.430;2023-03-01T03:01:50;20.92;;;8.80;;
70899;SDS011;67902;52.154;5.430;2023-03-01T03:04:17;19.38;;;7.95;;
70899;SDS011;67902;52.154;5.430;2023-03-01T03:06:45;21.90;;;8.75;;
70899;SDS011;67902;52.154;5.430;2023-03-01T03:09:12;22.10;;;9.13;;
70899;SDS011;67902;52.154;5.430;2023-03-01T03:11:42;19.58;;;8.13;;
70899;SDS011;67902;52.154;5.430;2023-03-01T03:14:09;21.67;;;8.55;;
70899;SDS011;67902;52.154;5.430;2023-03-01T03:16:45;19.15;;;9.13;;
70899;SDS011;67902;52.154;5.430;2023-03-01T03:19:13;20.15;;;8.27;;
70899;SDS011;67902;52.154;5.430;2023-03-01T03:21:40;30.45;;;9.07;;
70899;SDS011;67902;52.154;5.430;2023-03-01T03:24:06;18.17;;;8.15;;
70899;SDS011;67902;52.154;5.430;2023-03-01T03:26:33;19.10;;;8.35;;
70899;SDS011;67902;52.154;5.430;2023-03-01T03:28:59;16.20;;;8.05;;
70899;SDS011;67902;52.154;5.430;2023-03-01T03:31:27;20.65;;;7.70;;
70899;SDS011;67902;52.154;5.430;2023-03-01T03:33:53;18.77;;;8.00;;
70899;SDS011;67902;52.154;5.430;2023-03-01T03:36:21;22.38;;;8.02;;
70899;SDS011;67902;52.154;5.430;2023-03-01T03:38:49;22.42;;;8.40;;
70899;SDS011;67902;52.154;5.430;2023-03-01T03:41:16;19.75;;;8.38;;
70899;SDS011;67902;52.154;5.430;2023-03-01T03:43:43;21.60;;;7.95;;
70899;SDS011;67902;52.154;5.430;2023-03-01T03:46:10;22.83;;;8.15;;
70899;SDS011;67902;52.154;5.430;2023-03-01T03:48:38;23.02;;;8.25;;
70899;SDS011;67902;52.154;5.430;2023-03-01T03:51:09;18.90;;;8.10;;
70899;SDS011;67902;52.154;5.430;2023-03-01T03:53:37;17.17;;;8.10;;
70899;SDS011;67902;52.154;5.430;2023-03-01T03:56:04;20.52;;;7.97;;
70899;SDS011;67902;52.154;5.430;2023-03-01T03:58:32;19.13;;;7.82;;
70899;SDS011;67902;52.154;5.430;2023-03-01T04:00:58;19.75;;;8.10;;
70899;SDS011;67902;52.154;5.430;2023-03-01T04:03:27;17.85;;;8.15;;
70899;SDS011;67902;52.154;5.430;2023-03-01T04:05:56;23.08;;;8.80;;
70899;SDS011;67902;52.154;5.430;2023-03-01T04:08:24;24.67;;;8.77;;
70899;SDS011;67902;52.154;5.430;2023-03-01T04:10:52;22.17;;;8.90;;
70899;SDS011;67902;52.154;5.430;2023-03-01T04:13:22;22.33;;;8.48;;
70899;SDS011;67902;52.154;5.430;2023-03-01T04:15:51;20.95;;;9.20;;
70899;SDS011;67902;52.154;5.430;2023-03-01T04:18:19;19.90;;;8.50;;
70899;SDS011;67902;52.154;5.430;2023-03-01T04:20:47;22.30;;;9.27;;
70899;SDS011;67902;52.154;5.430;2023-03-01T04:23:15;18.67;;;8.18;;
70899;SDS011;67902;52.154;5.430;2023-03-01T04:28:23;18.58;;;8.50;;
70899;SDS011;67902;52.154;5.430;2023-03-01T04:33:23;16.00;;;7.47;;
70899;SDS011;67902;52.154;5.430;2023-03-01T04:35:51;19.80;;;7.93;;
70899;SDS011;67902;52.154;5.430;2023-03-01T04:38:18;26.27;;;8.95;;
70899;SDS011;67902;52.154;5.430;2023-03-01T04:40:45;20.00;;;8.30;;
70899;SDS011;67902;52.154;5.430;2023-03-01T04:43:12;26.88;;;9.63;;
70899;SDS011;67902;52.154;5.430;2023-03-01T04:45:42;22.80;;;10.13;;
70899;SDS011;67902;52.154;5.430;2023-03-01T04:48:09;22.85;;;9.68;;
70899;SDS011;67902;52.154;5.430;2023-03-01T04:50:35;21.23;;;9.52;;
70899;SDS011;67902;52.154;5.430;2023-03-01T04:53:02;20.27;;;8.50;;
70899;SDS011;67902;52.154;5.430;2023-03-01T04:55:29;23.88;;;8.98;;
70899;SDS011;67902;52.154;5.430;2023-03-01T04:57:55;22.20;;;9.27;;
70899;SDS011;67902;52.154;5.430;2023-03-01T05:00:22;22.02;;;8.98;;
70899;SDS011;67902;52.154;5.430;2023-03-01T05:02:50;18.02;;;8.48;;
70899;SDS011;67902;52.154;5.430;2023-03-01T05:05:23;19.48;;;8.32;;
70899;SDS011;67902;52.154;5.430;2023-03-01T05:07:55;20.35;;;8.95;;
70899;SDS011;67902;52.154;5.430;2023-03-01T05:10:24;22.58;;;8.60;;
70899;SDS011;67902;52.154;5.430;2023-03-01T05:12:51;21.40;;;8.88;;
70899;SDS011;67902;52.154;5.430;2023-03-01T05:15:20;25.73;;;9.52;;
70899;SDS011;67902;52.154;5.430;2023-03-01T05:17:48;19.70;;;8.57;;
70899;SDS011;67902;52.154;5.430;2023-03-01T05:20:15;20.13;;;9.00;;
70899;SDS011;67902;52.154;5.430;2023-03-01T05:22:42;20.67;;;8.77;;
70899;SDS011;67902;52.154;5.430;2023-03-01T05:25:09;17.38;;;8.10;;
70899;SDS011;67902;52.154;5.430;2023-03-01T05:27:35;24.45;;;10.00;;
70899;SDS011;67902;52.154;5.430;2023-03-01T05:30:02;20.75;;;9.13;;
70899;SDS011;67902;52.154;5.430;2023-03-01T05:32:40;21.65;;;8.80;;
70899;SDS011;67902;52.154;5.430;2023-03-01T05:35:09;21.70;;;8.65;;
70899;SDS011;67902;52.154;5.430;2023-03-01T05:37:40;21.00;;;8.50;;
70899;SDS011;67902;52.154;5.430;2023-03-01T05:40:11;21.77;;;8.70;;
70899;SDS011;67902;52.154;5.430;2023-03-01T05:42:42;20.00;;;8.95;;
70899;SDS011;67902;52.154;5.430;2023-03-01T05:45:10;22.25;;;8.45;;
70899;SDS011;67902;52.154;5.430;2023-03-01T05:47:41;31.33;;;10.50;;
70899;SDS011;67902;52.154;5.430;2023-03-01T05:50:14;23.60;;;9.38;;
70899;SDS011;67902;52.154;5.430;2023-03-01T05:52:45;24.88;;;8.93;;
70899;SDS011;67902;52.154;5.430;2023-03-01T05:55:17;22.85;;;9.63;;
70899;SDS011;67902;52.154;5.430;2023-03-01T05:57:47;25.02;;;8.82;;
70899;SDS011;67902;52.154;5.430;2023-03-01T06:00:14;24.63;;;9.93;;
70899;SDS011;67902;52.154;5.430;2023-03-01T06:02:44;27.02;;;11.32;;
70899;SDS011;67902;52.154;5.430;2023-03-01T06:05:12;31.55;;;11.57;;
70899;SDS011;67902;52.154;5.430;2023-03-01T06:07:41;26.23;;;10.10;;
70899;SDS011;67902;52.154;5.430;2023-03-01T06:10:12;24.95;;;9.50;;
70899;SDS011;67902;52.154;5.430;2023-03-01T06:12:39;26.55;;;9.13;;
70899;SDS011;67902;52.154;5.430;2023-03-01T06:17:36;19.30;;;7.78;;
70899;SDS011;67902;52.154;5.430;2023-03-01T06:20:05;22.80;;;8.80;;
70899;SDS011;67902;52.154;5.430;2023-03-01T06:22:33;25.95;;;9.88;;
70899;SDS011;67902;52.154;5.430;2023-03-01T06:24:59;25.20;;;10.55;;
70899;SDS011;67902;52.154;5.430;2023-03-01T06:27:26;26.65;;;9.73;;
70899;SDS011;67902;52.154;5.430;2023-03-01T06:29:53;24.05;;;9.77;;
70899;SDS011;67902;52.154;5.430;2023-03-01T06:32:19;25.67;;;9.50;;
70899;SDS011;67902;52.154;5.430;2023-03-01T06:34:46;27.20;;;10.05;;
70899;SDS011;67902;52.154;5.430;2023-03-01T06:37:12;21.58;;;8.98;;
70899;SDS011;67902;52.154;5.430;2023-03-01T06:39:39;21.55;;;10.05;;
70899;SDS011;67902;52.154;5.430;2023-03-01T06:42:05;25.73;;;10.05;;
70899;SDS011;67902;52.154;5.430;2023-03-01T06:47:00;23.73;;;9.50;;
70899;SDS011;67902;52.154;5.430;2023-03-01T06:49:26;26.45;;;9.68;;
70899;SDS011;67902;52.154;5.430;2023-03-01T06:51:53;20.90;;;9.40;;
70899;SDS011;67902;52.154;5.430;2023-03-01T06:54:19;27.75;;;10.93;;
70899;SDS011;67902;52.154;5.430;2023-03-01T06:56:48;27.73;;;10.35;;
70899;SDS011;67902;52.154;5.430;2023-03-01T06:59:15;26.70;;;10.63;;
70899;SDS011;67902;52.154;5.430;2023-03-01T07:01:42;24.48;;;10.88;;
70899;SDS011;67902;52.154;5.430;2023-03-01T07:04:10;28.42;;;10.23;;
70899;SDS011;67902;52.154;5.430;2023-03-01T07:06:37;26.77;;;10.18;;
70899;SDS011;67902;52.154;5.430;2023-03-01T07:09:04;24.73;;;10.85;;
70899;SDS011;67902;52.154;5.430;2023-03-01T07:11:30;22.85;;;10.27;;
70899;SDS011;67902;52.154;5.430;2023-03-01T07:13:57;24.23;;;10.73;;
70899;SDS011;67902;52.154;5.430;2023-03-01T07:16:24;31.13;;;10.82;;
70899;SDS011;67902;52.154;5.430;2023-03-01T07:18:50;25.63;;;11.10;;
70899;SDS011;67902;52.154;5.430;2023-03-01T07:21:17;102.03;;;34.65;;
70899;SDS011;67902;52.154;5.430;2023-03-01T07:23:43;107.10;;;36.78;;
70899;SDS011;67902;52.154;5.430;2023-03-01T07:26:13;115.80;;;41.75;;
70899;SDS011;67902;52.154;5.430;2023-03-01T07:28:40;131.82;;;48.28;;
70899;SDS011;67902;52.154;5.430;2023-03-01T07:31:06;145.07;;;49.90;;
70899;SDS011;67902;52.154;5.430;2023-03-01T07:33:33;97.82;;;38.00;;
70899;SDS011;67902;52.154;5.430;2023-03-01T07:36:00;74.43;;;32.83;;
70899;SDS011;67902;52.154;5.430;2023-03-01T07:38:28;53.47;;;24.58;;
70899;SDS011;67902;52.154;5.430;2023-03-01T07:41:01;32.80;;;15.77;;
70899;SDS011;67902;52.154;5.430;2023-03-01T07:43:29;27.10;;;13.52;;
70899;SDS011;67902;52.154;5.430;2023-03-01T07:46:00;31.58;;;14.88;;
70899;SDS011;67902;52.154;5.430;2023-03-01T07:48:27;30.67;;;13.32;;
70899;SDS011;67902;52.154;5.430;2023-03-01T07:50:54;27.35;;;12.52;;
70899;SDS011;67902;52.154;5.430;2023-03-01T07:53:23;33.35;;;12.68;;
70899;SDS011;67902;52.154;5.430;2023-03-01T07:55:49;28.20;;;11.75;;
70899;SDS011;67902;52.154;5.430;2023-03-01T07:58:25;24.15;;;11.82;;
70899;SDS011;67902;52.154;5.430;2023-03-01T08:00:53;27.85;;;11.48;;
70899;SDS011;67902;52.154;5.430;2023-03-01T08:03:19;26.75;;;10.85;;
70899;SDS011;67902;52.154;5.430;2023-03-01T08:05:46;24.42;;;10.65;;
70899;SDS011;67902;52.154;5.430;2023-03-01T08:08:12;22.80;;;10.32;;
70899;SDS011;67902;52.154;5.430;2023-03-01T08:10:39;21.30;;;10.35;;
70899;SDS011;67902;52.154;5.430;2023-03-01T08:13:05;21.83;;;10.48;;
70899;SDS011;67902;52.154;5.430;2023-03-01T08:15:31;22.10;;;10.43;;
70899;SDS011;67902;52.154;5.430;2023-03-01T08:17:58;20.88;;;9.35;;
70899;SDS011;67902;52.154;5.430;2023-03-01T08:20:24;21.83;;;10.15;;
70899;SDS011;67902;52.154;5.430;2023-03-01T08:22:51;18.38;;;9.40;;
70899;SDS011;67902;52.154;5.430;2023-03-01T08:25:18;20.35;;;9.98;;
70899;SDS011;67902;52.154;5.430;2023-03-01T08:27:44;20.90;;;9.25;;
70899;SDS011;67902;52.154;5.430;2023-03-01T08:30:11;19.15;;;9.43;;
70899;SDS011;67902;52.154;5.430;2023-03-01T08:32:38;16.27;;;8.80;;
70899;SDS011;67902;52.154;5.430;2023-03-01T08:35:05;18.08;;;9.48;;
70899;SDS011;67902;52.154;5.430;2023-03-01T08:37:32;16.15;;;8.75;;
70899;SDS011;67902;52.154;5.430;2023-03-01T08:39:59;20.10;;;10.52;;
70899;SDS011;67902;52.154;5.430;2023-03-01T08:42:26;15.18;;;8.45;;
70899;SDS011;67902;52.154;5.430;2023-03-01T08:44:53;13.73;;;7.72;;
70899;SDS011;67902;52.154;5.430;2023-03-01T08:47:19;16.83;;;7.63;;
70899;SDS011;67902;52.154;5.430;2023-03-01T08:49:46;14.23;;;7.80;;
70899;SDS011;67902;52.154;5.430;2023-03-01T08:52:12;14.98;;;7.55;;
70899;SDS011;67902;52.154;5.430;2023-03-01T08:54:41;16.67;;;8.93;;
70899;SDS011;67902;52.154;5.430;2023-03-01T08:57:13;14.10;;;7.70;;
70899;SDS011;67902;52.154;5.430;2023-03-01T08:59:39;13.32;;;7.20;;
70899;SDS011;67902;52.154;5.430;2023-03-01T09:02:11;15.20;;;6.28;;
70899;SDS011;67902;52.154;5.430;2023-03-01T09:04:39;12.27;;;6.97;;
70899;SDS011;67902;52.154;5.430;2023-03-01T09:07:06;11.52;;;5.72;;
70899;SDS011;67902;52.154;5.430;2023-03-01T09:12:01;11.70;;;5.90;;
70899;SDS011;67902;52.154;5.430;2023-03-01T09:14:28;14.40;;;6.57;;
70899;SDS011;67902;52.154;5.430;2023-03-01T09:16:55;10.25;;;5.95;;
70899;SDS011;67902;52.154;5.430;2023-03-01T09:21:50;10.90;;;6.57;;
70899;SDS011;67902;52.154;5.430;2023-03-01T09:24:22;12.10;;;5.55;;
70899;SDS011;67902;52.154;5.430;2023-03-01T09:26:52;12.55;;;6.07;;
70899;SDS011;67902;52.154;5.430;2023-03-01T09:29:19;10.32;;;5.20;;
70899;SDS011;67902;52.154;5.430;2023-03-01T09:31:46;11.07;;;5.00;;
70899;SDS011;67902;52.154;5.430;2023-03-01T09:34:12;9.65;;;4.85;;
70899;SDS011;67902;52.154;5.430;2023-03-01T09:36:42;8.93;;;4.47;;
70899;SDS011;67902;52.154;5.430;2023-03-01T09:39:08;10.05;;;5.10;;
70899;SDS011;67902;52.154;5.430;2023-03-01T09:44:16;10.38;;;5.18;;
70899;SDS011;67902;52.154;5.430;2023-03-01T09:46:57;10.70;;;4.97;;
70899;SDS011;67902;52.154;5.430;2023-03-01T09:49:28;11.25;;;4.65;;
70899;SDS011;67902;52.154;5.430;2023-03-01T09:54:27;7.43;;;3.63;;
70899;SDS011;67902;52.154;5.430;2023-03-01T09:56:57;7.72;;;3.08;;
70899;SDS011;67902;52.154;5.430;2023-03-01T09:59:33;7.60;;;3.38;;
70899;SDS011;67902;52.154;5.430;2023-03-01T10:04:51;8.27;;;3.67;;
70899;SDS011;67902;52.154;5.430;2023-03-01T10:07:22;8.45;;;3.53;;
70899;SDS011;67902;52.154;5.430;2023-03-01T10:09:57;7.70;;;3.03;;
70899;SDS011;67902;52.154;5.430;2023-03-01T10:12:25;8.00;;;3.35;;
70899;SDS011;67902;52.154;5.430;2023-03-01T10:15:02;8.27;;;3.13;;
70899;SDS011;67902;52.154;5.430;2023-03-01T10:17:46;7.47;;;3.67;;
70899;SDS011;67902;52.154;5.430;2023-03-01T10:22:47;7.20;;;3.25;;
70899;SDS011;67902;52.154;5.430;2023-03-01T10:25:20;8.18;;;3.75;;
70899;SDS011;67902;52.154;5.430;2023-03-01T10:27:59;9.05;;;3.85;;
70899;SDS011;67902;52.154;5.430;2023-03-01T10:30:35;8.00;;;3.83;;
70899;SDS011;67902;52.154;5.430;2023-03-01T10:33:13;8.45;;;3.78;;
70899;SDS011;67902;52.154;5.430;2023-03-01T10:35:46;9.20;;;4.07;;
70899;SDS011;67902;52.154;5.430;2023-03-01T10:38:14;8.07;;;3.90;;
70899;SDS011;67902;52.154;5.430;2023-03-01T10:40:55;9.52;;;3.70;;
70899;SDS011;67902;52.154;5.430;2023-03-01T10:43:42;9.82;;;3.85;;
70899;SDS011;67902;52.154;5.430;2023-03-01T10:46:30;7.60;;;3.30;;
70899;SDS011;67902;52.154;5.430;2023-03-01T10:51:51;8.18;;;3.60;;
70899;SDS011;67902;52.154;5.430;2023-03-01T10:54:20;7.28;;;3.13;;
70899;SDS011;67902;52.154;5.430;2023-03-01T10:56:57;7.03;;;2.60;;
70899;SDS011;67902;52.154;5.430;2023-03-01T11:05:01;7.07;;;2.45;;
70899;SDS011;67902;52.154;5.430;2023-03-01T11:07:48;6.10;;;2.47;;
70899;SDS011;67902;52.154;5.430;2023-03-01T11:10:23;8.52;;;2.65;;
70899;SDS011;67902;52.154;5.430;2023-03-01T11:12:52;6.97;;;2.42;;
70899;SDS011;67902;52.154;5.430;2023-03-01T11:15:31;8.40;;;2.70;;
70899;SDS011;67902;52.154;5.430;2023-03-01T11:17:57;6.50;;;2.60;;
70899;SDS011;67902;52.154;5.430;2023-03-01T11:20:39;7.13;;;2.47;;
70899;SDS011;67902;52.154;5.430;2023-03-01T11:23:08;6.82;;;2.50;;
70899;SDS011;67902;52.154;5.430;2023-03-01T11:25:41;7.07;;;2.70;;
70899;SDS011;67902;52.154;5.430;2023-03-01T11:28:13;7.32;;;3.03;;
70899;SDS011;67902;52.154;5.430;2023-03-01T11:30:55;7.78;;;3.03;;
70899;SDS011;67902;52.154;5.430;2023-03-01T11:38:57;7.57;;;2.78;;
70899;SDS011;67902;52.154;5.430;2023-03-01T11:41:30;6.95;;;2.78;;
70899;SDS011;67902;52.154;5.430;2023-03-01T11:44:03;7.93;;;3.10;;
70899;SDS011;67902;52.154;5.430;2023-03-01T11:46:42;6.93;;;3.00;;
70899;SDS011;67902;52.154;5.430;2023-03-01T11:54:50;6.40;;;2.70;;
70899;SDS011;67902;52.154;5.430;2023-03-01T12:02:50;7.22;;;3.22;;
70899;SDS011;67902;52.154;5.430;2023-03-01T12:08:37;9.00;;;3.15;;
70899;SDS011;67902;52.154;5.430;2023-03-01T12:19:55;8.23;;;3.85;;
70899;SDS011;67902;52.154;5.430;2023-03-01T12:25:16;9.10;;;3.22;;
70899;SDS011;67902;52.154;5.430;2023-03-01T12:27:50;8.27;;;3.28;;
70899;SDS011;67902;52.154;5.430;2023-03-01T12:30:42;8.55;;;3.25;;
70899;SDS011;67902;52.154;5.430;2023-03-01T12:33:24;7.25;;;2.72;;
70899;SDS011;67902;52.154;5.430;2023-03-01T12:39:06;7.57;;;3.28;;
70899;SDS011;67902;52.154;5.430;2023-03-01T12:41:55;8.02;;;3.15;;
70899;SDS011;67902;52.154;5.430;2023-03-01T12:50:18;7.10;;;3.22;;
70899;SDS011;67902;52.154;5.430;2023-03-01T12:52:49;7.75;;;3.42;;
70899;SDS011;67902;52.154;5.430;2023-03-01T12:55:29;7.88;;;3.25;;
70899;SDS011;67902;52.154;5.430;2023-03-01T12:58:15;7.85;;;3.40;;
70899;SDS011;67902;52.154;5.430;2023-03-01T13:09:51;7.03;;;3.08;;
70899;SDS011;67902;52.154;5.430;2023-03-01T13:15:56;12.13;;;4.95;;
70899;SDS011;67902;52.154;5.430;2023-03-01T13:28:40;10.45;;;4.78;;
70899;SDS011;67902;52.154;5.430;2023-03-01T13:31:55;8.43;;;4.00;;
70899;SDS011;67902;52.154;5.430;2023-03-01T13:33:56;8.27;;;3.63;;
70899;SDS011;67902;52.154;5.430;2023-03-01T13:46:56;9.25;;;3.92;;
70899;SDS011;67902;52.154;5.430;2023-03-01T13:49:27;8.95;;;3.55;;
70899;SDS011;67902;52.154;5.430;2023-03-01T13:52:21;9.10;;;4.07;;
70899;SDS011;67902;52.154;5.430;2023-03-01T13:54:55;8.63;;;4.05;;
70899;SDS011;67902;52.154;5.430;2023-03-01T13:57:24;7.38;;;3.53;;
70899;SDS011;67902;52.154;5.430;2023-03-01T13:59:55;7.53;;;3.30;;
70899;SDS011;67902;52.154;5.430;2023-03-01T14:02:22;9.93;;;3.88;;
70899;SDS011;67902;52.154;5.430;2023-03-01T14:04:58;7.53;;;3.40;;
70899;SDS011;67902;52.154;5.430;2023-03-01T14:07:26;7.28;;;3.40;;
70899;SDS011;67902;52.154;5.430;2023-03-01T14:09:58;10.60;;;3.80;;
70899;SDS011;67902;52.154;5.430;2023-03-01T14:16:24;9.02;;;3.75;;
70899;SDS011;67902;52.154;5.430;2023-03-01T14:18:58;8.60;;;3.67;;
70899;SDS011;67902;52.154;5.430;2023-03-01T14:21:39;7.85;;;4.20;;
70899;SDS011;67902;52.154;5.430;2023-03-01T14:24:06;8.65;;;4.00;;
70899;SDS011;67902;52.154;5.430;2023-03-01T14:26:43;10.57;;;4.53;;
70899;SDS011;67902;52.154;5.430;2023-03-01T14:29:25;7.43;;;3.58;;
70899;SDS011;67902;52.154;5.430;2023-03-01T14:31:53;7.20;;;3.42;;
70899;SDS011;67902;52.154;5.430;2023-03-01T14:34:24;7.13;;;3.55;;
70899;SDS011;67902;52.154;5.430;2023-03-01T14:36:50;9.70;;;4.88;;
70899;SDS011;67902;52.154;5.430;2023-03-01T14:39:18;7.35;;;3.63;;
70899;SDS011;67902;52.154;5.430;2023-03-01T14:41:49;8.20;;;4.07;;
70899;SDS011;67902;52.154;5.430;2023-03-01T14:44:21;7.65;;;3.35;;
70899;SDS011;67902;52.154;5.430;2023-03-01T14:49:22;8.15;;;4.18;;
70899;SDS011;67902;52.154;5.430;2023-03-01T14:51:53;8.38;;;3.75;;
70899;SDS011;67902;52.154;5.430;2023-03-01T14:54:27;7.93;;;3.88;;
70899;SDS011;67902;52.154;5.430;2023-03-01T14:57:01;8.80;;;3.72;;
70899;SDS011;67902;52.154;5.430;2023-03-01T15:01:55;7.05;;;3.60;;
70899;SDS011;67902;52.154;5.430;2023-03-01T15:04:23;9.23;;;3.80;;
70899;SDS011;67902;52.154;5.430;2023-03-01T15:06:55;8.50;;;3.80;;
70899;SDS011;67902;52.154;5.430;2023-03-01T15:09:31;7.40;;;3.22;;
70899;SDS011;67902;52.154;5.430;2023-03-01T15:12:00;7.55;;;3.15;;
70899;SDS011;67902;52.154;5.430;2023-03-01T15:14:28;7.63;;;3.78;;
70899;SDS011;67902;52.154;5.430;2023-03-01T15:17:31;8.07;;;3.45;;
70899;SDS011;67902;52.154;5.430;2023-03-01T15:20:14;9.23;;;3.55;;
70899;SDS011;67902;52.154;5.430;2023-03-01T15:22:43;7.90;;;3.80;;
70899;SDS011;67902;52.154;5.430;2023-03-01T15:25:15;8.02;;;3.70;;
70899;SDS011;67902;52.154;5.430;2023-03-01T15:27:47;7.88;;;3.95;;
70899;SDS011;67902;52.154;5.430;2023-03-01T15:30:17;9.85;;;3.75;;
70899;SDS011;67902;52.154;5.430;2023-03-01T15:32:47;8.90;;;3.33;;
70899;SDS011;67902;52.154;5.430;2023-03-01T15:35:32;8.20;;;3.97;;
70899;SDS011;67902;52.154;5.430;2023-03-01T15:38:00;9.25;;;3.60;;
70899;SDS011;67902;52.154;5.430;2023-03-01T15:40:27;7.60;;;3.88;;
70899;SDS011;67902;52.154;5.430;2023-03-01T15:43:03;9.25;;;4.28;;
70899;SDS011;67902;52.154;5.430;2023-03-01T15:45:32;10.77;;;5.82;;
70899;SDS011;67902;52.154;5.430;2023-03-01T15:48:04;9.95;;;3.83;;
70899;SDS011;67902;52.154;5.430;2023-03-01T15:50:33;9.50;;;4.07;;
70899;SDS011;67902;52.154;5.430;2023-03-01T15:53:06;9.05;;;3.90;;
70899;SDS011;67902;52.154;5.430;2023-03-01T15:55:37;9.65;;;3.97;;
70899;SDS011;67902;52.154;5.430;2023-03-01T15:58:05;8.07;;;3.83;;
70899;SDS011;67902;52.154;5.430;2023-03-01T16:00:36;8.93;;;4.43;;
70899;SDS011;67902;52.154;5.430;2023-03-01T16:03:02;9.32;;;4.38;;
70899;SDS011;67902;52.154;5.430;2023-03-01T16:05:30;16.58;;;7.50;;
70899;SDS011;67902;52.154;5.430;2023-03-01T16:07:58;10.70;;;5.60;;
70899;SDS011;67902;52.154;5.430;2023-03-01T16:10:25;9.43;;;4.00;;
70899;SDS011;67902;52.154;5.430;2023-03-01T16:12:51;8.82;;;4.43;;
70899;SDS011;67902;52.154;5.430;2023-03-01T16:15:22;13.35;;;4.55;;
70899;SDS011;67902;52.154;5.430;2023-03-01T16:17:51;9.07;;;4.70;;
70899;SDS011;67902;52.154;5.430;2023-03-01T16:20:18;9.48;;;4.03;;
70899;SDS011;67902;52.154;5.430;2023-03-01T16:22:54;8.85;;;4.10;;
70899;SDS011;67902;52.154;5.430;2023-03-01T16:25:21;9.20;;;3.70;;
70899;SDS011;67902;52.154;5.430;2023-03-01T16:27:48;9.95;;;4.28;;
70899;SDS011;67902;52.154;5.430;2023-03-01T16:30:17;8.65;;;3.85;;
70899;SDS011;67902;52.154;5.430;2023-03-01T16:32:46;8.45;;;3.70;;
70899;SDS011;67902;52.154;5.430;2023-03-01T16:35:15;10.60;;;4.35;;
70899;SDS011;67902;52.154;5.430;2023-03-01T16:37:44;8.43;;;3.97;;
70899;SDS011;67902;52.154;5.430;2023-03-01T16:42:43;10.68;;;4.05;;
70899;SDS011;67902;52.154;5.430;2023-03-01T16:45:10;13.25;;;4.68;;
70899;SDS011;67902;52.154;5.430;2023-03-01T16:47:54;9.95;;;4.25;;
70899;SDS011;67902;52.154;5.430;2023-03-01T16:50:21;12.75;;;4.25;;
70899;SDS011;67902;52.154;5.430;2023-03-01T16:52:48;9.43;;;3.90;;
70899;SDS011;67902;52.154;5.430;2023-03-01T16:55:15;10.25;;;3.30;;
70899;SDS011;67902;52.154;5.430;2023-03-01T16:57:41;9.73;;;4.05;;
70899;SDS011;67902;52.154;5.430;2023-03-01T17:00:08;12.38;;;4.50;;